Bowling Green, Illinois
Current Conditions -  °F | °C
As of 4:55 PM on Tuesday 25 Nov 2014 (Local Time) from K1H2 Reporting Station
Broken Clouds Broken Clouds  
Wind Chill: 32°   Ceiling: 2600
Heat Index: 32°   Visibility: 10mi
Dew Point: 22°   Wind: 0mph
Humidity: 67%   Direction: NA
Pressure: 30.18"   Gusts: NA
Location:  39.2184°N, 88.9038°W
Report Text: K1H2 252255Z AUTO 00000KT 10SM BKN026 00/M05 A3018 RMK AO2 T00001055
Loading
Personal Weather Stations






























Interactive Weather Map New forecast layout! Learn more

10-Day Weather Forecast

Advertisements
Track Severe Weather on mobile